createdAt,value
2022-12-11T00:02:27.700Z,97719.94
2022-12-11T00:04:57.787Z,97730.56
2022-12-11T00:07:27.900Z,97720.59
2022-12-11T00:09:58.091Z,97708.00
2022-12-11T00:12:28.323Z,97704.22
2022-12-11T00:14:58.424Z,97705.25
2022-12-11T00:17:31.211Z,97693.94
2022-12-11T00:20:01.292Z,97696.97
2022-12-11T00:22:33.138Z,97674.38
2022-12-11T00:25:06.652Z,97664.06
2022-12-11T00:27:36.843Z,97670.94
2022-12-11T00:30:08.557Z,97658.31
2022-12-11T00:32:41.204Z,97656.56
2022-12-11T00:35:13.120Z,97634.44
2022-12-11T00:37:43.367Z,97633.25
2022-12-11T00:40:17.851Z,97621.03
2022-12-11T00:42:48.006Z,97624.78
2022-12-11T00:45:18.983Z,97617.59
2022-12-11T00:47:51.689Z,97610.22
2022-12-11T00:50:21.935Z,97606.63
2022-12-11T00:52:52.010Z,97604.00
2022-12-11T00:55:22.034Z,97593.72
2022-12-11T00:57:54.385Z,97590.91
2022-12-11T01:00:25.582Z,97579.97
2022-12-11T01:02:58.491Z,97581.88
2022-12-11T01:05:28.776Z,97580.06
2022-12-11T01:07:58.959Z,97577.09
2022-12-11T01:10:29.667Z,97574.13
2022-12-11T01:13:01.475Z,97584.91
2022-12-11T01:15:38.678Z,97583.44
2022-12-11T01:18:15.084Z,97589.88
2022-12-11T01:20:45.592Z,97587.91
2022-12-11T01:23:16.861Z,97593.16
2022-12-11T01:25:47.561Z,97585.00
2022-12-11T01:28:17.910Z,97569.69
2022-12-11T01:30:48.240Z,97579.81
2022-12-11T01:33:20.943Z,97585.09
2022-12-11T01:35:51.045Z,97571.34
2022-12-11T01:38:21.147Z,97566.00
2022-12-11T01:40:52.771Z,97560.09
2022-12-11T01:43:23.885Z,97561.53
2022-12-11T01:45:53.951Z,97555.31
2022-12-11T01:48:30.339Z,97550.28
2022-12-11T01:51:04.558Z,97554.81
2022-12-11T01:53:38.015Z,97558.91
2022-12-11T01:56:10.829Z,97555.03
2022-12-11T01:58:45.810Z,97552.50
2022-12-11T02:01:24.680Z,97543.97
2022-12-11T02:03:58.751Z,97550.91
2022-12-11T02:06:39.237Z,97550.31
2022-12-11T02:09:12.535Z,97546.06
2022-12-11T02:11:50.840Z,97532.41
2022-12-11T02:14:32.582Z,97545.47
2022-12-11T02:17:06.924Z,97549.34
2022-12-11T02:19:58.821Z,97542.47
2022-12-11T02:22:38.754Z,97547.47
2022-12-11T02:25:19.598Z,97552.19
2022-12-11T02:27:56.661Z,97544.78
2022-12-11T02:30:30.345Z,97547.53
2022-12-11T02:33:01.976Z,97538.84
2022-12-11T02:35:36.868Z,97554.38
2022-12-11T02:38:15.906Z,97557.81
2022-12-11T02:40:47.514Z,97558.63
2022-12-11T02:43:21.011Z,97561.25
2022-12-11T02:45:56.313Z,97564.97
2022-12-11T02:48:27.556Z,97564.38
2022-12-11T02:51:00.840Z,97570.72
2022-12-11T02:53:34.325Z,97569.03
2022-12-11T02:56:11.696Z,97573.72
2022-12-11T02:58:50.689Z,97582.81
2022-12-11T03:01:54.052Z,97590.66
2022-12-11T03:04:26.749Z,97593.97
2022-12-11T03:07:02.002Z,97599.09
2022-12-11T03:09:32.380Z,97604.47
2022-12-11T03:12:02.432Z,97610.34
2022-12-11T03:14:32.560Z,97606.66
2022-12-11T03:17:10.339Z,97608.97
2022-12-11T03:19:49.812Z,97606.50
2022-12-11T03:22:24.694Z,97617.31
2022-12-11T03:25:00.610Z,97612.97
2022-12-11T03:27:36.091Z,97602.78
2022-12-11T03:30:09.274Z,97615.25
2022-12-11T03:32:43.751Z,97599.94
2022-12-11T03:35:22.240Z,97598.84
2022-12-11T03:37:54.045Z,97587.44
2022-12-11T03:40:26.855Z,97601.63
2022-12-11T03:43:00.300Z,97597.38
2022-12-11T03:45:32.981Z,97597.91
2022-12-11T03:48:05.531Z,97593.94
2022-12-11T03:50:40.033Z,97586.97
2022-12-11T03:53:10.921Z,97568.16
2022-12-11T03:55:43.423Z,97579.84
2022-12-11T03:58:13.611Z,97579.00
2022-12-11T04:00:43.663Z,97585.22
2022-12-11T04:03:18.004Z,97564.47
2022-12-11T04:05:52.272Z,97561.19
2022-12-11T04:08:23.699Z,97543.50
2022-12-11T04:11:14.902Z,97560.38
2022-12-11T04:13:45.506Z,97560.38
2022-12-11T04:16:12.965Z,97543.63
2022-12-11T04:18:55.456Z,97542.00
2022-12-11T04:21:40.702Z,97546.09
2022-12-11T04:24:18.394Z,97548.69
2022-12-11T04:26:50.116Z,97549.28
2022-12-11T04:29:20.267Z,97542.69
2022-12-11T04:31:50.845Z,97550.91
2022-12-11T04:34:23.054Z,97555.69
2022-12-11T04:36:55.700Z,97556.53
2022-12-11T04:39:25.933Z,97560.34
2022-12-11T04:41:55.965Z,97560.63
2022-12-11T04:44:25.963Z,97556.13
2022-12-11T04:46:55.952Z,97566.13
2022-12-11T04:49:26.478Z,97563.94
2022-12-11T04:51:59.073Z,97576.41
2022-12-11T04:54:29.215Z,97571.59
2022-12-11T04:56:59.339Z,97568.72
2022-12-11T04:59:29.445Z,97580.53
2022-12-11T05:01:59.813Z,97574.34
2022-12-11T05:04:34.072Z,97574.91
2022-12-11T05:07:06.716Z,97573.53
2022-12-11T05:09:36.784Z,97576.94
2022-12-11T05:12:07.127Z,97580.38
2022-12-11T05:14:37.245Z,97586.41
2022-12-11T05:17:07.299Z,97600.53
2022-12-11T05:19:37.332Z,97597.78
2022-12-11T05:22:09.983Z,97598.06
2022-12-11T05:24:40.129Z,97607.22
2022-12-11T05:27:12.597Z,97607.81
2022-12-11T05:29:42.790Z,97608.84
2022-12-11T05:32:13.025Z,97619.13
2022-12-11T05:34:43.107Z,97619.41
2022-12-11T05:37:15.835Z,97623.00
2022-12-11T05:39:45.939Z,97632.97
2022-12-11T05:42:15.886Z,97638.47
2022-12-11T05:44:45.907Z,97641.19
2022-12-11T05:47:16.781Z,97638.97
2022-12-11T05:49:47.523Z,97656.22
2022-12-11T05:52:20.283Z,97656.81
2022-12-11T05:54:52.200Z,97658.84
2022-12-11T05:57:22.420Z,97664.38
2022-12-11T05:59:52.646Z,97681.34
2022-12-11T06:02:22.966Z,97680.94
2022-12-11T06:04:53.212Z,97690.09
2022-12-11T06:07:25.851Z,97679.94
2022-12-11T06:09:56.032Z,97699.75
2022-12-11T06:12:26.047Z,97709.13
2022-12-11T06:14:56.589Z,97717.00
2022-12-11T06:17:26.749Z,97721.88
2022-12-11T06:19:56.888Z,97721.63
2022-12-11T06:22:29.564Z,97740.41
2022-12-11T06:25:02.310Z,97749.34
2022-12-11T06:27:32.637Z,97762.19
2022-12-11T06:30:03.787Z,97761.94
2022-12-11T06:32:34.254Z,97762.19
2022-12-11T06:35:04.366Z,97756.88
2022-12-11T06:37:37.757Z,97752.75
2022-12-11T06:40:09.469Z,97758.38
2022-12-11T06:42:39.532Z,97764.38
2022-12-11T06:45:11.386Z,97774.78
2022-12-11T06:47:41.565Z,97783.81
2022-12-11T06:50:12.816Z,97788.78
2022-12-11T06:52:45.986Z,97796.63
2022-12-11T06:55:16.047Z,97790.97
2022-12-11T06:57:46.234Z,97806.44
2022-12-11T07:00:19.802Z,97794.09
2022-12-11T07:02:50.430Z,97801.09
2022-12-11T07:05:20.775Z,97811.41
2022-12-11T07:07:56.225Z,97815.94
2022-12-11T07:10:27.156Z,97817.03
2022-12-11T07:12:57.369Z,97815.00
2022-12-11T07:15:27.536Z,97824.91
2022-12-11T07:17:57.746Z,97835.53
2022-12-11T07:20:29.003Z,97836.03
2022-12-11T07:23:01.631Z,97843.38
2022-12-11T07:25:33.991Z,97847.59
2022-12-11T07:28:04.073Z,97846.09
2022-12-11T07:30:34.426Z,97855.56
2022-12-11T07:33:04.528Z,97854.88
2022-12-11T07:35:34.692Z,97863.59
2022-12-11T07:38:07.562Z,97869.41
2022-12-11T07:40:37.690Z,97873.56
2022-12-11T07:43:10.979Z,97876.94
2022-12-11T07:45:41.332Z,97886.66
2022-12-11T07:48:12.856Z,97892.03
2022-12-11T07:50:42.867Z,97911.22
2022-12-11T07:53:15.521Z,97909.03
2022-12-11T07:55:45.551Z,97910.09
2022-12-11T07:58:15.658Z,97915.03
2022-12-11T08:00:47.988Z,97933.41
2022-12-11T08:03:18.712Z,97929.06
2022-12-11T08:05:52.255Z,97940.69
2022-12-11T08:08:25.093Z,97950.63
2022-12-11T08:10:58.347Z,97952.78
2022-12-11T08:13:28.380Z,97959.78
2022-12-11T08:15:58.728Z,97965.81
2022-12-11T08:18:28.998Z,97973.84
2022-12-11T08:20:59.110Z,97973.66
2022-12-11T08:23:31.777Z,97986.50
2022-12-11T08:26:02.832Z,97989.47
2022-12-11T08:28:32.935Z,97989.69
2022-12-11T08:31:03.647Z,97999.56
2022-12-11T08:33:33.849Z,98005.75
2022-12-11T08:36:05.538Z,98012.81
2022-12-11T08:38:38.710Z,98013.59
2022-12-11T08:41:14.543Z,98014.47
2022-12-11T08:43:45.127Z,98028.53
2022-12-11T08:46:16.253Z,98017.75
2022-12-11T08:48:46.838Z,98027.19
2022-12-11T08:51:18.488Z,98021.19
2022-12-11T08:53:51.417Z,98021.28
2022-12-11T08:56:23.889Z,98038.75
2022-12-11T08:58:54.848Z,98036.59
2022-12-11T09:01:26.567Z,98046.66
2022-12-11T09:03:59.664Z,98049.97
2022-12-11T09:06:31.925Z,98055.06
2022-12-11T09:09:06.172Z,98053.28
2022-12-11T09:11:38.868Z,98055.59
2022-12-11T09:14:10.740Z,98061.78
2022-12-11T09:16:43.053Z,98068.97
2022-12-11T09:19:16.603Z,98077.44
2022-12-11T09:21:47.214Z,98088.44
2022-12-11T09:24:19.854Z,98087.41
2022-12-11T09:26:49.936Z,98084.19
2022-12-11T09:29:20.016Z,98086.00
2022-12-11T09:31:50.533Z,98080.28
2022-12-11T09:34:23.659Z,98081.94
2022-12-11T09:36:57.496Z,98073.78
2022-12-11T09:39:30.388Z,98078.00
2022-12-11T09:42:12.315Z,98083.06
2022-12-11T09:44:46.815Z,98087.34
2022-12-11T09:47:24.823Z,98096.78
2022-12-11T09:50:05.907Z,98096.78
2022-12-11T09:52:40.301Z,98100.81
2022-12-11T09:55:19.624Z,98107.94
2022-12-11T09:57:57.067Z,98097.63
2022-12-11T10:00:31.655Z,98115.81
2022-12-11T10:03:31.700Z,98121.47
2022-12-11T10:06:14.258Z,98122.69
2022-12-11T10:08:53.042Z,98131.09
2022-12-11T10:11:40.797Z,98144.59
2022-12-11T10:14:20.660Z,98149.53
2022-12-11T10:16:55.148Z,98149.00
2022-12-11T10:19:30.607Z,98154.75
2022-12-11T10:22:03.180Z,98159.88
2022-12-11T10:27:41.689Z,98159.03
2022-12-11T10:30:19.409Z,98152.03
2022-12-11T10:32:56.469Z,98149.41
2022-12-11T10:35:38.699Z,98144.06
2022-12-11T10:38:16.225Z,98141.88
2022-12-11T10:40:48.725Z,98136.69
2022-12-11T10:43:21.523Z,98130.38
2022-12-11T10:45:55.612Z,98132.84
2022-12-11T10:48:26.045Z,98139.31
2022-12-11T10:51:02.796Z,98132.03
2022-12-11T10:53:34.216Z,98135.06
2022-12-11T10:56:05.234Z,98138.53
2022-12-11T10:58:43.232Z,98121.44
2022-12-11T11:01:17.632Z,98137.94
2022-12-11T11:03:58.215Z,98140.00
2022-12-11T11:06:29.264Z,98147.97
2022-12-11T11:09:01.059Z,98144.66
2022-12-11T11:11:34.502Z,98158.44
2022-12-11T11:14:17.651Z,98165.31
2022-12-11T11:16:49.704Z,98161.31
2022-12-11T11:19:28.844Z,98185.97
2022-12-11T11:22:01.958Z,98188.31
2022-12-11T11:24:38.010Z,98195.72
2022-12-11T11:27:15.781Z,98198.59
2022-12-11T11:29:56.732Z,98197.50
2022-12-11T11:32:32.367Z,98204.66
2022-12-11T11:35:20.250Z,98200.53
2022-12-11T11:37:58.060Z,98212.25
2022-12-11T11:40:31.700Z,98207.28
2022-12-11T11:43:10.676Z,98195.59
2022-12-11T11:45:49.764Z,98182.78
2022-12-11T11:48:31.467Z,98195.03
2022-12-11T11:51:01.616Z,98214.00
2022-12-11T11:53:37.606Z,98219.50
2022-12-11T11:56:18.030Z,98223.41
2022-12-11T11:58:55.465Z,98227.78
2022-12-11T12:01:28.665Z,98224.09
2022-12-11T12:04:00.412Z,98220.53
2022-12-11T12:06:47.468Z,98225.63
2022-12-11T12:09:34.215Z,98228.94
2022-12-11T12:12:13.850Z,98244.22
2022-12-11T12:14:58.215Z,98249.16
2022-12-11T12:17:42.494Z,98250.09
2022-12-11T12:20:21.449Z,98246.22
2022-12-11T12:23:05.743Z,98252.03
2022-12-11T12:25:43.642Z,98250.25
2022-12-11T12:28:25.302Z,98248.19
2022-12-11T12:31:08.284Z,98238.69
2022-12-11T12:33:53.551Z,98235.13
2022-12-11T12:36:34.468Z,98236.34
2022-12-11T12:39:08.673Z,98236.91
2022-12-11T12:41:51.285Z,98247.22
2022-12-11T12:44:24.372Z,98243.91
2022-12-11T12:47:02.325Z,98248.84
2022-12-11T12:49:46.748Z,98252.97
2022-12-11T12:52:19.628Z,98255.69
2022-12-11T12:55:06.405Z,98267.53
2022-12-11T12:57:38.084Z,98267.66
2022-12-11T13:00:13.434Z,98276.63
2022-12-11T13:02:53.910Z,98287.47
2022-12-11T13:05:29.535Z,98274.03
2022-12-11T13:08:02.527Z,98280.78
2022-12-11T13:10:35.353Z,98265.28
2022-12-11T13:13:07.406Z,98270.63
2022-12-11T13:15:40.863Z,98276.56
2022-12-11T13:18:36.368Z,98287.72
2022-12-11T13:21:32.292Z,98292.94
2022-12-11T13:24:18.984Z,98307.13
2022-12-11T13:26:50.651Z,98307.38
2022-12-11T13:29:35.661Z,98309.16
2022-12-11T13:32:22.706Z,98314.78
2022-12-11T13:34:58.352Z,98307.66
2022-12-11T13:37:36.706Z,98310.41
2022-12-11T13:40:19.748Z,98318.13
2022-12-11T13:42:54.517Z,98325.69
2022-12-11T13:45:30.132Z,98326.09
2022-12-11T13:48:01.578Z,98326.94
2022-12-11T13:50:34.068Z,98329.06
2022-12-11T13:53:06.940Z,98334.84
2022-12-11T13:55:38.067Z,98334.03
2022-12-11T13:58:19.414Z,98330.19
2022-12-11T14:01:02.486Z,98337.47
2022-12-11T14:03:34.461Z,98345.31
2022-12-11T14:06:05.639Z,98345.88
2022-12-11T14:08:43.034Z,98354.94
2022-12-11T14:11:24.990Z,98352.97
2022-12-11T14:13:55.151Z,98363.53
2022-12-11T14:16:27.830Z,98361.09
2022-12-11T14:19:03.804Z,98358.31
2022-12-11T14:21:33.869Z,98358.31
2022-12-11T14:24:07.671Z,98359.81
2022-12-11T14:26:40.545Z,98359.56
2022-12-11T14:29:26.022Z,98364.91
2022-12-11T14:31:57.097Z,98369.31
2022-12-11T14:34:29.622Z,98374.66
2022-12-11T14:37:02.012Z,98380.25
2022-12-11T14:39:40.978Z,98382.03
2022-12-11T14:42:15.268Z,98387.41
2022-12-11T14:44:52.749Z,98395.13
2022-12-11T14:47:26.062Z,98390.00
2022-12-11T14:50:02.355Z,98388.34
2022-12-11T14:52:36.687Z,98390.97
2022-12-11T14:55:13.363Z,98402.38
2022-12-11T14:57:47.111Z,98399.19
2022-12-11T15:00:29.936Z,98404.53
2022-12-11T15:03:02.272Z,98413.31
2022-12-11T15:05:40.802Z,98419.06
2022-12-11T15:08:25.094Z,98415.16
2022-12-11T15:11:06.610Z,98420.06
2022-12-11T15:13:38.579Z,98426.69
2022-12-11T15:16:11.181Z,98433.56
2022-12-11T15:18:44.641Z,98432.16
2022-12-11T15:21:16.694Z,98437.25
2022-12-11T15:23:54.604Z,98431.00
2022-12-11T15:26:37.825Z,98433.59
2022-12-11T15:29:10.120Z,98434.56
2022-12-11T15:31:40.163Z,98434.81
2022-12-11T15:34:24.735Z,98431.00
2022-12-11T15:36:54.888Z,98431.09
2022-12-11T15:39:27.223Z,98428.91
2022-12-11T15:42:00.126Z,98438.50
2022-12-11T15:44:30.185Z,98432.56
2022-12-11T15:47:00.213Z,98433.41
2022-12-11T15:49:30.393Z,98438.63
2022-12-11T15:52:00.504Z,98444.69
2022-12-11T15:54:30.766Z,98447.28
2022-12-11T15:57:06.505Z,98448.84
2022-12-11T15:59:36.981Z,98453.09
2022-12-11T16:02:08.388Z,98456.91
2022-12-11T16:04:38.478Z,98459.06
2022-12-11T16:07:09.663Z,98457.50
2022-12-11T16:09:39.699Z,98461.66
2022-12-11T16:12:14.145Z,98466.78
2022-12-11T16:14:44.201Z,98459.88
2022-12-11T16:17:15.646Z,98475.56
2022-12-11T16:19:47.102Z,98462.75
2022-12-11T16:22:17.615Z,98461.06
2022-12-11T16:24:47.727Z,98462.97
2022-12-11T16:27:23.247Z,98455.13
2022-12-11T16:29:56.817Z,98454.31
2022-12-11T16:32:26.935Z,98457.75
2022-12-11T16:34:57.032Z,98457.03
2022-12-11T16:37:27.027Z,98451.09
2022-12-11T16:39:57.783Z,98454.44
2022-12-11T16:42:30.542Z,98464.53
2022-12-11T16:45:08.591Z,98460.00
2022-12-11T16:47:39.022Z,98457.16
2022-12-11T16:50:10.530Z,98472.34
2022-12-11T16:52:40.780Z,98479.25
2022-12-11T16:55:12.317Z,98470.56
2022-12-11T16:57:48.240Z,98475.09
2022-12-11T17:00:20.702Z,98474.13
2022-12-11T17:02:50.855Z,98481.00
2022-12-11T17:05:21.061Z,98478.66
2022-12-11T17:07:51.197Z,98485.41
2022-12-11T17:10:21.525Z,98483.63
2022-12-11T17:12:54.168Z,98488.63
2022-12-11T17:15:24.327Z,98493.25
2022-12-11T17:17:54.443Z,98491.22
2022-12-11T17:20:24.613Z,98491.34
2022-12-11T17:22:54.788Z,98485.41
2022-12-11T17:25:25.057Z,98486.59
2022-12-11T17:27:58.482Z,98495.84
2022-12-11T17:30:28.649Z,98496.81
2022-12-11T17:32:58.805Z,98494.31
2022-12-11T17:35:28.907Z,98497.75
2022-12-11T17:37:59.477Z,98489.31
2022-12-11T17:40:30.496Z,98493.84
2022-12-11T17:43:06.493Z,98492.28
2022-12-11T17:45:36.432Z,98494.06
2022-12-11T17:48:06.967Z,98486.84
2022-12-11T17:50:37.466Z,98490.41
2022-12-11T17:53:07.595Z,98486.38
2022-12-11T17:55:38.271Z,98483.78
2022-12-11T17:58:11.573Z,98486.13
2022-12-11T18:00:42.812Z,98485.75
2022-12-11T18:03:13.527Z,98492.78
2022-12-11T18:05:44.536Z,98492.66
2022-12-11T18:08:15.914Z,98498.69
2022-12-11T18:10:46.929Z,98485.28
2022-12-11T18:13:19.754Z,98493.25
2022-12-11T18:15:49.894Z,98504.41
2022-12-11T18:18:20.107Z,98495.84
2022-12-11T18:20:51.155Z,98493.94
2022-12-11T18:23:21.232Z,98499.31
2022-12-11T18:25:51.350Z,98497.50
2022-12-11T18:28:24.123Z,98496.44
2022-12-11T18:30:54.268Z,98499.41
2022-12-11T18:33:24.480Z,98509.75
2022-12-11T18:35:57.547Z,98501.91
2022-12-11T18:38:27.640Z,98501.66
2022-12-11T18:41:00.659Z,98497.16
2022-12-11T18:43:33.280Z,98498.00
2022-12-11T18:46:03.430Z,98484.00
2022-12-11T18:48:36.078Z,98502.63
2022-12-11T18:51:10.016Z,98513.06
2022-12-11T18:53:41.995Z,98511.53
2022-12-11T18:56:14.499Z,98508.19
2022-12-11T18:58:47.932Z,98510.34
2022-12-11T19:01:21.965Z,98513.19
2022-12-11T19:03:54.465Z,98520.19
2022-12-11T19:06:32.127Z,98519.34
2022-12-11T19:09:03.149Z,98515.91
2022-12-11T19:11:38.386Z,98524.47
2022-12-11T19:14:12.338Z,98527.91
2022-12-11T19:16:45.516Z,98527.09
2022-12-11T19:19:18.433Z,98528.16
2022-12-11T19:21:49.748Z,98530.28
2022-12-11T19:24:22.022Z,98534.34
2022-12-11T19:26:52.279Z,98537.63
2022-12-11T19:29:27.275Z,98534.34
2022-12-11T19:31:58.488Z,98516.06
2022-12-11T19:34:31.632Z,98527.44
2022-12-11T19:37:01.986Z,98535.63
2022-12-11T19:39:32.114Z,98540.00
2022-12-11T19:42:02.841Z,98539.41
2022-12-11T19:44:35.956Z,98535.50
2022-12-11T19:47:06.175Z,98545.94
2022-12-11T19:49:36.590Z,98545.47
2022-12-11T19:52:07.493Z,98543.69
2022-12-11T19:54:37.626Z,98539.78
2022-12-11T19:57:08.172Z,98541.69
2022-12-11T19:59:56.761Z,98550.94
2022-12-11T20:02:27.301Z,98541.56
2022-12-11T20:04:57.476Z,98502.66
2022-12-11T20:07:30.686Z,98539.91
2022-12-11T20:10:07.186Z,98544.31
2022-12-11T20:12:40.549Z,98545.38
2022-12-11T20:15:14.303Z,98542.75
2022-12-11T20:17:44.893Z,98547.97
2022-12-11T20:20:15.660Z,98545.38
2022-12-11T20:22:45.793Z,98545.00
2022-12-11T20:25:16.123Z,98540.72
2022-12-11T20:27:46.280Z,98542.63
2022-12-11T20:30:23.703Z,98549.84
2022-12-11T20:32:54.099Z,98533.63
2022-12-11T20:35:24.169Z,98548.31
2022-12-11T20:37:54.296Z,98548.19
2022-12-11T20:40:25.365Z,98547.72
2022-12-11T20:42:55.529Z,98551.06
2022-12-11T20:45:28.339Z,98549.16
2022-12-11T20:47:58.573Z,98551.66
2022-12-11T20:50:29.273Z,98552.47
2022-12-11T20:52:59.356Z,98550.94
2022-12-11T20:55:29.428Z,98547.72
2022-12-11T20:57:59.859Z,98550.78
2022-12-11T21:00:33.183Z,98553.78
2022-12-11T21:03:03.544Z,98555.44
2022-12-11T21:05:33.599Z,98558.16
2022-12-11T21:08:03.772Z,98553.91
2022-12-11T21:10:33.855Z,98557.78
2022-12-11T21:13:03.958Z,98564.94
2022-12-11T21:15:38.129Z,98556.50
2022-12-11T21:18:08.568Z,98556.97
2022-12-11T21:20:39.203Z,98557.94
2022-12-11T21:23:09.489Z,98556.13
2022-12-11T21:25:40.778Z,98561.50
2022-12-11T21:28:11.150Z,98558.88
2022-12-11T21:30:49.384Z,98563.16
2022-12-11T21:33:19.632Z,98554.25
2022-12-11T21:35:57.424Z,98561.50
2022-12-11T21:38:28.019Z,98554.63
2022-12-11T21:40:59.452Z,98560.28
2022-12-11T21:43:29.472Z,98559.94
2022-12-11T21:46:02.608Z,98554.94
2022-12-11T21:48:33.072Z,98548.91
2022-12-11T21:51:09.490Z,98553.28
2022-12-11T21:53:40.900Z,98542.97
2022-12-11T21:56:12.724Z,98545.69
2022-12-11T21:58:44.943Z,98540.25
2022-12-11T22:01:21.134Z,98543.47
2022-12-11T22:03:52.648Z,98555.78
2022-12-11T22:06:22.917Z,98559.94
2022-12-11T22:08:53.549Z,98558.41
2022-12-11T22:11:28.911Z,98553.53
2022-12-11T22:13:59.633Z,98549.84
2022-12-11T22:16:32.626Z,98550.69
2022-12-11T22:19:03.299Z,98557.19
2022-12-11T22:21:33.646Z,98560.63
2022-12-11T22:24:03.861Z,98563.75
2022-12-11T22:26:33.955Z,98560.03
2022-12-11T22:29:03.995Z,98556.59
2022-12-11T22:31:36.822Z,98558.84
2022-12-11T22:34:06.872Z,98564.91
2022-12-11T22:36:37.036Z,98567.53
2022-12-11T22:39:07.527Z,98566.69
2022-12-11T22:41:42.051Z,98565.03
2022-12-11T22:44:17.038Z,98555.66
2022-12-11T22:46:50.915Z,98567.97
2022-12-11T22:49:20.914Z,98564.41
2022-12-11T22:51:51.023Z,98567.72
2022-12-11T22:54:21.303Z,98569.59
2022-12-11T22:56:53.639Z,98562.94
2022-12-11T22:59:23.666Z,98563.63
2022-12-11T23:01:56.520Z,98566.41
2022-12-11T23:04:26.984Z,98569.47
2022-12-11T23:06:57.129Z,98563.91
2022-12-11T23:09:27.500Z,98571.31
2022-12-11T23:11:58.934Z,98564.88
2022-12-11T23:14:29.069Z,98569.38
2022-12-11T23:17:01.829Z,98574.38
2022-12-11T23:19:31.965Z,98584.06
2022-12-11T23:22:01.999Z,98585.84
2022-12-11T23:24:32.308Z,98583.13
2022-12-11T23:27:02.624Z,98588.13
2022-12-11T23:29:32.780Z,98587.28
2022-12-11T23:32:05.725Z,98596.78
2022-12-11T23:34:35.835Z,98593.44
2022-12-11T23:37:06.004Z,98588.91
2022-12-11T23:39:36.276Z,98597.06
2022-12-11T23:42:06.464Z,98585.47
2022-12-11T23:44:36.768Z,98582.97
2022-12-11T23:47:09.395Z,98582.03
2022-12-11T23:49:39.610Z,98590.56
2022-12-11T23:52:11.903Z,98593.75
2022-12-11T23:54:42.052Z,98590.31
2022-12-11T23:57:12.193Z,98591.03
2022-12-11T23:59:42.407Z,98595.97
